Time;durP1;ratioP1;P1;durP2;ratioP2;P2;SDS_P1;SDS_P2;PMS_P1;PMS_P2;Temp;Humidity;BMP_temperature;BMP_pressure;BME280_temperature;BME280_humidity;BME280_pressure;Samples;Min_cycle;Max_cycle;Signal;HPM_P1;HPM_P2
2022/05/24 05:01:51;;;;;;;2.47;1.55;;;;;;;12.66;80.29;100217.69;5029349;28;96867;-34
2022/05/24 05:04:20;;;;;;;3.47;1.55;;;;;;;12.63;79.75;100226.06;5012222;28;99381;-34
2022/05/24 05:06:47;;;;;;;2.88;1.40;;;;;;;12.60;80.44;100240.75;5012023;28;99932;-34
2022/05/24 05:09:14;;;;;;;7.97;1.80;;;;;;;12.49;80.12;100241.63;5011740;28;96510;-34
2022/05/24 05:11:39;;;;;;;5.00;1.80;;;;;;;12.52;80.65;100263.09;5010698;28;96932;-34
2022/05/24 05:14:06;;;;;;;6.05;1.15;;;;;;;12.44;80.48;100248.41;5011944;28;98184;-34
2022/05/24 05:16:32;;;;;;;2.78;1.50;;;;;;;12.45;80.60;100263.72;5010676;28;101069;-34
2022/05/24 05:18:57;;;;;;;3.05;1.50;;;;;;;12.51;80.51;100263.22;5012088;28;96461;-34
2022/05/24 05:21:22;;;;;;;2.47;1.65;;;;;;;12.54;80.15;100263.84;4993525;28;119023;-34
2022/05/24 05:23:47;;;;;;;2.58;1.50;;;;;;;12.50;80.20;100251.50;4993419;28;119626;-34
2022/05/24 05:26:14;;;;;;;3.22;1.42;;;;;;;12.50;80.23;100256.94;5011762;28;110500;-34
2022/05/24 05:28:40;;;;;;;7.82;2.10;;;;;;;12.47;80.53;100254.47;5011236;28;96683;-33
2022/05/24 05:33:51;;;;;;;4.85;1.80;;;;;;;12.42;80.01;100278.41;4998069;28;96575;-34
2022/05/24 05:36:18;;;;;;;5.88;1.80;;;;;;;12.50;80.01;100273.22;5016659;28;98908;-34
2022/05/24 05:38:47;;;;;;;3.88;1.83;;;;;;;12.49;80.36;100289.66;5017207;28;96583;-33
2022/05/24 05:41:18;;;;;;;3.10;1.75;;;;;;;12.46;80.51;100292.59;5017192;28;96857;-34
2022/05/24 05:43:44;;;;;;;3.40;1.17;;;;;;;12.59;80.22;100304.25;5017209;28;101162;-34
2022/05/24 05:46:11;;;;;;;4.65;1.83;;;;;;;12.61;80.17;100295.97;5018832;28;97226;-34
2022/05/24 05:48:37;;;;;;;5.30;2.38;;;;;;;12.67;80.23;100298.19;5017177;28;96619;-34
2022/05/24 05:51:04;;;;;;;3.33;1.80;;;;;;;12.69;80.00;100288.94;5017494;28;96902;-34
2022/05/24 05:53:30;;;;;;;4.63;2.28;;;;;;;12.77;79.39;100296.47;5016038;28;101364;-34
2022/05/24 05:55:55;;;;;;;4.60;1.85;;;;;;;12.79;79.53;100308.09;5016476;28;112120;-35
2022/05/24 05:58:21;;;;;;;4.63;2.30;;;;;;;12.78;79.34;100308.22;5017226;28;96823;-34
2022/05/24 06:00:49;;;;;;;6.50;2.38;;;;;;;12.87;79.69;100297.50;5016506;28;96911;-34
2022/05/24 06:03:16;;;;;;;6.75;1.75;;;;;;;12.92;78.86;100299.84;5019291;28;99345;-34
2022/05/24 06:05:43;;;;;;;6.13;2.33;;;;;;;12.96;78.65;100302.16;5016732;28;100734;-34
2022/05/24 06:08:09;;;;;;;10.65;2.40;;;;;;;13.08;78.95;100311.19;5000444;28;96522;-34
2022/05/24 06:10:36;;;;;;;3.20;1.73;;;;;;;13.02;78.18;100308.13;5018051;28;97011;-34
2022/05/24 06:13:02;;;;;;;7.57;2.45;;;;;;;13.03;78.70;100312.56;5016387;28;100833;-34
2022/05/24 06:15:27;;;;;;;4.43;1.83;;;;;;;13.06;78.31;100313.19;5018274;28;99258;-34
2022/05/24 06:17:53;;;;;;;4.53;2.10;;;;;;;12.98;78.71;100315.66;5018172;28;96497;-33
2022/05/24 06:20:23;;;;;;;5.68;1.95;;;;;;;13.05;77.98;100321.47;5016829;28;96922;-34
2022/05/24 06:22:49;;;;;;;2.83;1.55;;;;;;;13.09;78.49;100317.50;5017346;28;99002;-34
2022/05/24 06:25:16;;;;;;;3.45;2.13;;;;;;;13.12;78.46;100319.97;5016396;28;100850;-34
2022/05/24 06:27:42;;;;;;;3.75;1.88;;;;;;;13.21;78.09;100334.69;5017894;28;96519;-34
2022/05/24 06:30:08;;;;;;;8.13;2.50;;;;;;;13.31;78.30;100338.41;5017763;28;106207;-34
2022/05/24 06:32:33;;;;;;;5.07;2.55;;;;;;;13.37;77.34;100325.19;5017573;28;100199;-34
2022/05/24 06:34:59;;;;;;;6.88;2.10;;;;;;;13.48;75.57;100326.16;5017308;28;117541;-34
2022/05/24 06:37:24;;;;;;;3.03;1.60;;;;;;;13.52;75.90;100328.50;5017872;28;104084;-34
2022/05/24 06:39:50;;;;;;;10.27;2.15;;;;;;;13.55;76.64;100347.28;5018018;28;96950;-34
2022/05/24 06:42:15;;;;;;;5.63;2.13;;;;;;;13.67;75.52;100347.28;5016487;28;99356;-34
2022/05/24 06:44:41;;;;;;;4.68;2.20;;;;;;;13.71;74.89;100335.16;5017492;28;99904;-34
2022/05/24 06:47:06;;;;;;;5.18;2.47;;;;;;;13.71;75.47;100343.31;5012653;28;107767;-34
2022/05/24 06:49:32;;;;;;;4.30;2.03;;;;;;;13.75;75.38;100355.66;5014706;28;96834;-34
2022/05/24 06:51:58;;;;;;;3.33;2.10;;;;;;;13.90;75.57;100357.13;5014367;28;98034;-34
2022/05/24 06:54:24;;;;;;;9.65;2.55;;;;;;;14.02;75.37;100358.81;5012887;28;100994;-34
2022/05/24 06:56:49;;;;;;;3.00;1.75;;;;;;;14.13;75.26;100362.47;5014868;28;96454;-34
2022/05/24 07:04:42;;;;;;;5.45;1.85;;;;;;;13.94;74.42;100374.94;5014841;28;97009;-34
2022/05/24 07:07:07;;;;;;;2.83;1.60;;;;;;;13.93;74.68;100365.03;5014464;28;96739;-34
2022/05/24 07:09:33;;;;;;;7.22;2.10;;;;;;;13.83;74.92;100360.50;5014159;28;99542;-34
2022/05/24 07:11:59;;;;;;;4.88;1.55;;;;;;;13.85;75.22;100375.72;5013356;28;97925;-34
2022/05/24 07:14:36;;;;;;;2.40;1.50;;;;;;;13.79;74.83;100387.94;5013971;28;97461;-34
2022/05/24 07:17:02;;;;;;;2.30;1.17;;;;;;;13.83;76.01;100385.00;5013930;28;109415;-34
2022/05/24 07:19:28;;;;;;;7.13;1.00;;;;;;;13.75;75.70;100377.44;5014203;28;96727;-34
2022/05/24 07:21:53;;;;;;;4.68;1.92;;;;;;;13.78;76.09;100396.25;5013892;28;98127;-34
2022/05/24 07:24:18;;;;;;;2.88;1.25;;;;;;;13.75;75.88;100401.94;5013619;28;98047;-34
2022/05/24 07:26:44;;;;;;;3.33;1.90;;;;;;;13.76;77.11;100406.41;5013993;28;96508;-34
2022/05/24 07:29:10;;;;;;;3.60;1.85;;;;;;;13.70;76.32;100405.03;5014358;28;96739;-34
2022/05/24 07:31:38;;;;;;;3.40;1.80;;;;;;;13.71;76.69;100408.66;4995330;28;101118;-34
2022/05/24 07:34:03;;;;;;;3.95;2.20;;;;;;;13.66;76.74;100411.75;5013742;28;97975;-33
2022/05/24 07:36:28;;;;;;;2.15;1.25;;;;;;;13.60;77.65;100404.94;5012961;28;96603;-34
2022/05/24 07:38:54;;;;;;;4.20;1.83;;;;;;;13.59;77.10;100421.41;5013615;28;100135;-34
2022/05/24 07:46:59;;;;;;;3.13;1.10;;;;;;;13.24;77.28;100430.50;5013880;28;96555;-34
2022/05/24 07:49:25;;;;;;;2.83;0.85;;;;;;;13.09;77.51;100416.25;5012926;28;112351;-34
2022/05/24 07:51:50;;;;;;;1.00;0.70;;;;;;;13.05;78.51;100424.78;5011984;28;101032;-33
2022/05/24 07:54:15;;;;;;;3.42;0.98;;;;;;;13.13;78.20;100439.53;5013532;28;98720;-33
2022/05/24 07:56:42;;;;;;;0.60;0.50;;;;;;;13.09;78.00;100423.56;5012713;28;102050;-34
2022/05/24 07:59:08;;;;;;;1.75;0.88;;;;;;;13.14;78.11;100434.94;5013154;28;96826;-34
2022/05/24 08:01:34;;;;;;;4.20;0.75;;;;;;;13.16;78.05;100436.53;5012717;28;99366;-34
2022/05/24 08:03:59;;;;;;;4.18;0.70;;;;;;;13.31;77.78;100442.66;5013200;28;97239;-34
2022/05/24 08:06:24;;;;;;;6.75;1.00;;;;;;;13.43;77.69;100431.78;5012811;28;102704;-34
2022/05/24 08:08:50;;;;;;;1.02;0.60;;;;;;;13.74;77.17;100452.78;5013250;28;96872;-33
2022/05/24 08:11:15;;;;;;;2.42;1.08;;;;;;;13.98;77.71;100460.81;5012414;28;109043;-34
2022/05/24 08:13:40;;;;;;;2.00;0.73;;;;;;;14.23;76.23;100437.88;5012952;28;99095;-33
2022/05/24 08:16:07;;;;;;;1.60;1.00;;;;;;;14.55;75.33;100433.47;5012940;28;104593;-34
2022/05/24 08:18:32;;;;;;;2.50;1.00;;;;;;;14.56;74.90;100446.97;4995473;28;96851;-34
2022/05/24 08:20:58;;;;;;;1.77;0.95;;;;;;;14.48;75.16;100445.84;5013345;28;97432;-34
2022/05/24 08:23:25;;;;;;;0.70;0.43;;;;;;;14.27;75.03;100446.63;5012781;28;98856;-34
2022/05/24 08:25:51;;;;;;;3.65;0.57;;;;;;;14.11;75.02;100452.50;4994006;28;96968;-34
2022/05/24 08:28:16;;;;;;;2.33;1.10;;;;;;;13.96;76.29;100464.66;4994928;28;96834;-34
2022/05/24 08:30:43;;;;;;;0.57;0.52;;;;;;;13.88;77.20;100470.75;4994770;28;101033;-34
2022/05/24 08:33:11;;;;;;;0.80;0.60;;;;;;;13.78;77.72;100477.94;4994619;28;101674;-34
2022/05/24 08:35:37;;;;;;;1.05;0.60;;;;;;;13.64;76.83;100497.22;4994889;28;96764;-34
2022/05/24 08:38:04;;;;;;;1.33;0.57;;;;;;;13.58;77.48;100483.09;5012946;28;96836;-34
2022/05/24 08:40:30;;;;;;;0.82;0.55;;;;;;;13.71;77.17;100488.44;4994323;28;100744;-34
2022/05/24 08:43:16;;;;;;;0.38;0.38;;;;;;;13.98;77.48;100507.09;5011526;28;100929;-34
2022/05/24 08:48:48;;;;;;;1.40;0.88;;;;;;;14.56;75.90;100504.19;5013259;28;96835;-34
2022/05/24 08:51:28;;;;;;;1.15;0.82;;;;;;;14.97;74.83;100512.56;4994000;28;101153;-34
2022/05/24 08:54:10;;;;;;;1.27;0.68;;;;;;;15.04;73.37;100501.03;5012448;28;99394;-34
2022/05/24 08:56:44;;;;;;;;;;;;;;;15.16;73.93;100518.19;4995118;28;96560;-34
2022/05/24 08:59:25;;;;;;;1.23;0.73;;;;;;;15.02;73.17;100524.84;5012382;28;96817;-34
2022/05/24 09:01:51;;;;;;;3.67;1.17;;;;;;;14.81;72.74;100524.78;5012177;28;99131;-34
2022/05/24 09:04:16;;;;;;;3.10;1.55;;;;;;;14.60;72.60;100521.16;5011901;28;99220;-34
2022/05/24 09:06:51;;;;;;;3.10;1.35;;;;;;;14.52;73.81;100529.09;5012304;28;96510;-34
2022/05/24 09:09:32;;;;;;;2.60;0.80;;;;;;;14.44;74.29;100540.59;5012036;28;96852;-34
2022/05/24 09:12:16;;;;;;;2.88;1.38;;;;;;;14.34;74.53;100532.31;5011749;28;99507;-34
2022/05/24 09:14:44;;;;;;;2.70;1.13;;;;;;;14.22;74.69;100541.50;5012349;28;97798;-34
2022/05/24 09:17:18;;;;;;;4.28;1.27;;;;;;;14.17;74.64;100536.44;5011540;28;96572;-34
2022/05/24 09:19:43;;;;;;;6.10;1.25;;;;;;;14.26;74.75;100569.38;5012008;28;104067;-34
2022/05/24 09:22:13;;;;;;;1.67;1.05;;;;;;;14.21;74.70;100577.94;5011833;28;97924;-34
2022/05/24 09:24:49;;;;;;;2.22;1.35;;;;;;;14.05;74.50;100578.28;4993641;28;100762;-34
2022/05/24 09:27:22;;;;;;;4.97;1.00;;;;;;;13.94;75.19;100581.00;4994235;28;96602;-34
2022/05/24 09:30:08;;;;;;;4.82;0.77;;;;;;;13.91;75.04;100586.69;4994085;28;96754;-34
2022/05/24 09:32:43;;;;;;;2.75;0.70;;;;;;;13.86;75.14;100588.94;4993509;28;101076;-34
2022/05/24 09:35:08;;;;;;;0.80;0.70;;;;;;;13.87;75.20;100591.53;4994119;28;100801;-34
2022/05/24 09:37:34;;;;;;;2.67;0.77;;;;;;;13.80;75.23;100579.41;5011907;28;97750;-34
2022/05/24 09:40:04;;;;;;;1.35;0.90;;;;;;;13.85;75.84;100588.06;5012154;28;96827;-34
2022/05/24 09:42:36;;;;;;;4.15;1.27;;;;;;;13.90;76.12;100599.47;4993175;28;101799;-34
2022/05/24 09:45:09;;;;;;;2.83;1.17;;;;;;;14.02;75.93;100597.63;4993640;28;101410;-34
2022/05/24 09:47:53;;;;;;;4.03;1.35;;;;;;;14.09;75.69;100595.28;4993874;28;96740;-34
2022/05/24 09:50:24;;;;;;;2.15;1.90;;;;;;;14.19;76.00;100604.44;4993943;28;96846;-34
2022/05/24 09:53:12;;;;;;;2.27;1.30;;;;;;;14.18;76.85;100610.84;4993507;28;101563;-34
2022/05/24 09:55:46;;;;;;;1.77;1.23;;;;;;;14.18;76.28;100610.84;5010212;28;99357;-34
2022/05/24 09:58:26;;;;;;;2.47;1.17;;;;;;;14.15;76.79;100619.28;5011426;28;96527;-34
2022/05/24 10:00:52;;;;;;;3.95;1.20;;;;;;;14.15;76.01;100614.69;5012063;28;96894;-34
2022/05/24 10:03:27;;;;;;;3.55;1.35;;;;;;;14.12;76.08;100609.50;5011134;28;99031;-34
2022/05/24 10:06:25;;;;;;;2.47;1.40;;;;;;;14.21;76.38;100624.25;5026486;28;97441;-34
2022/05/24 10:08:53;;;;;;;2.25;1.08;;;;;;;14.21;75.54;100622.38;5011065;28;96486;-34
2022/05/24 10:11:50;;;;;;;3.30;1.77;;;;;;;14.72;76.02;100625.59;5011204;28;96771;-34
2022/05/24 10:14:34;;;;;;;3.30;1.13;;;;;;;14.83;74.54;100626.44;4985936;28;97679;-34
2022/05/24 10:17:10;;;;;;;4.13;1.20;;;;;;;14.71;74.05;100635.63;5011307;28;99308;-33
2022/05/24 10:19:51;;;;;;;5.18;1.30;;;;;;;14.70;74.20;100638.47;5011774;28;96659;-33
2022/05/24 10:22:35;;;;;;;3.30;1.17;;;;;;;14.60;74.10;100652.00;5013536;28;96754;-33
2022/05/24 10:25:35;;;;;;;2.42;1.20;;;;;;;14.49;74.66;100647.41;5014669;28;99375;-34
2022/05/24 10:28:40;;;;;;;3.38;1.10;;;;;;;14.72;74.58;100648.25;5015197;28;97906;-33
2022/05/24 10:31:14;;;;;;;3.30;1.27;;;;;;;14.94;73.68;100654.66;4996628;28;97453;-34
2022/05/24 10:39:34;;;;;;;2.47;1.52;;;;;;;14.96;73.21;100656.28;5014790;28;96898;-34
2022/05/24 10:42:30;;;;;;;3.72;1.20;;;;;;;14.85;73.30;100665.34;4996551;28;96568;-33
2022/05/24 10:45:21;;;;;;;1.17;0.80;;;;;;;14.80;73.17;100661.25;5014534;28;96794;-33
2022/05/24 10:48:00;;;;;;;2.07;1.27;;;;;;;14.78;73.54;100671.44;5014371;28;99270;-34
2022/05/24 10:50:35;;;;;;;3.90;1.33;;;;;;;14.90;73.00;100672.25;4996322;28;100758;-33
2022/05/24 10:53:11;;;;;;;8.93;1.55;;;;;;;15.13;72.78;100663.03;5013072;28;96578;-33
2022/05/24 10:55:57;;;;;;;3.83;0.98;;;;;;;15.38;71.19;100661.84;5015014;28;96791;-33
2022/05/24 10:58:23;;;;;;;4.75;0.93;;;;;;;15.37;72.35;100656.50;5014419;28;97106;-33
2022/05/24 11:00:51;;;;;;;4.07;1.30;;;;;;;15.37;72.59;100673.75;4996114;28;100930;-33
2022/05/24 11:03:28;;;;;;;7.47;1.90;;;;;;;15.08;70.46;100682.53;5013444;28;96760;-33
2022/05/24 11:06:15;;;;;;;4.78;1.55;;;;;;;14.99;71.98;100683.31;4996328;28;96700;-33
2022/05/24 11:08:46;;;;;;;5.22;1.00;;;;;;;15.03;71.73;100681.19;4996059;28;100968;-33
2022/05/24 11:11:27;;;;;;;4.47;1.30;;;;;;;15.28;71.10;100682.75;5013669;28;99569;-33
2022/05/24 11:14:15;;;;;;;1.60;1.00;;;;;;;15.40;70.35;100672.66;4996030;28;96734;-33
2022/05/24 11:16:46;;;;;;;4.20;1.27;;;;;;;15.51;70.65;100678.03;5014044;28;96589;-34
2022/05/24 11:19:23;;;;;;;1.13;0.80;;;;;;;15.51;69.36;100675.31;4996014;28;101317;-34
2022/05/24 11:22:00;;;;;;;1.17;0.80;;;;;;;15.70;69.41;100685.56;4996192;28;101003;-33
2022/05/24 11:24:39;;;;;;;1.27;0.70;;;;;;;15.79;69.51;100701.16;4995835;28;96688;-33
2022/05/24 11:27:07;;;;;;;2.92;0.85;;;;;;;15.97;68.36;100698.72;4995627;28;96776;-34
2022/05/24 11:29:59;;;;;;;1.65;0.73;;;;;;;15.95;68.27;100703.44;4995215;28;101401;-34
2022/05/24 11:32:36;;;;;;;;;;;;;;;15.80;66.95;100710.22;5012108;28;101235;-34
2022/05/24 11:35:19;;;;;;;3.33;0.73;;;;;;;15.61;67.37;100703.59;5029503;28;96718;-33
2022/05/24 11:37:55;;;;;;;3.47;0.90;;;;;;;15.55;68.60;100701.38;5012493;28;96831;-33
2022/05/24 11:40:56;;;;;;;1.52;0.52;;;;;;;15.43;68.29;100702.41;4995461;28;99897;-33
2022/05/24 11:43:50;;;;;;;3.97;0.77;;;;;;;15.89;68.70;100706.69;4995421;28;101218;-33
2022/05/24 11:46:34;;;;;;;1.95;0.77;;;;;;;16.48;67.62;100695.13;5013335;28;96773;-33
2022/05/24 11:49:18;;;;;;;4.65;0.90;;;;;;;16.86;61.75;100699.06;5013856;28;96782;-33
2022/05/24 11:51:49;;;;;;;1.27;0.63;;;;;;;16.89;64.38;100712.44;5012107;28;100823;-33
2022/05/24 11:54:23;;;;;;;1.65;0.77;;;;;;;17.07;64.68;100717.28;5013411;28;97503;-34
2022/05/24 11:57:00;;;;;;;2.50;0.60;;;;;;;17.25;63.62;100715.56;5012940;28;96709;-34
2022/05/24 11:59:43;;;;;;;1.05;0.52;;;;;;;17.22;62.00;100707.66;5012081;28;97304;-33
2022/05/24 12:02:21;;;;;;;0.60;0.30;;;;;;;17.49;61.86;100722.53;5012943;28;99485;-33
2022/05/24 12:08:22;;;;;;;3.05;0.50;;;;;;;18.07;60.59;100724.44;5011849;28;96514;-33
2022/05/24 12:11:12;;;;;;;0.75;0.43;;;;;;;18.08;59.35;100724.28;5012770;28;96760;-34
2022/05/24 12:13:55;;;;;;;2.30;0.50;;;;;;;17.80;60.07;100732.41;4998977;28;98059;-34
2022/05/24 12:16:43;;;;;;;6.13;0.60;;;;;;;17.67;60.00;100728.19;4995442;28;101474;-34
2022/05/24 12:19:11;;;;;;;0.55;0.40;;;;;;;17.62;61.27;100723.13;5012781;28;96736;-33
2022/05/24 12:21:58;;;;;;;0.93;0.40;;;;;;;17.59;60.12;100728.88;5013062;28;96797;-34
2022/05/24 12:24:23;;;;;;;1.80;0.40;;;;;;;17.56;61.48;100737.38;4994195;28;99003;-34
2022/05/24 12:27:07;;;;;;;1.27;0.60;;;;;;;17.69;59.24;100734.38;5012877;28;98683;-33
2022/05/24 12:29:33;;;;;;;1.45;0.47;;;;;;;17.88;58.14;100742.63;5013201;28;96712;-34
2022/05/24 12:32:04;;;;;;;5.40;0.70;;;;;;;17.83;58.51;100743.06;5013065;28;96782;-33
2022/05/24 12:34:32;;;;;;;0.45;0.35;;;;;;;17.66;57.75;100732.78;4994726;28;100978;-34
2022/05/24 12:37:00;;;;;;;1.13;0.50;;;;;;;17.68;57.69;100736.25;4994688;28;101197;-34
2022/05/24 12:39:26;;;;;;;2.65;0.50;;;;;;;17.97;58.07;100746.38;4994804;28;96603;-34
2022/05/24 12:42:00;;;;;;;2.40;0.38;;;;;;;17.99;56.26;100747.94;5013243;28;96688;-34
2022/05/24 12:44:38;;;;;;;0.40;0.30;;;;;;;18.04;57.37;100753.00;5011271;28;99395;-34
2022/05/24 12:47:06;;;;;;;2.45;0.47;;;;;;;18.39;56.62;100754.25;4994652;28;100884;-34
2022/05/24 12:49:34;;;;;;;0.68;0.40;;;;;;;18.54;54.46;100730.81;5012042;28;96590;-34
2022/05/24 12:52:15;;;;;;;0.75;0.40;;;;;;;18.86;56.23;100751.56;4994455;28;96863;-34
2022/05/24 12:54:55;;;;;;;0.88;0.52;;;;;;;18.98;55.04;100753.09;5012327;28;99355;-34
2022/05/24 12:57:33;;;;;;;1.75;0.43;;;;;;;19.25;55.73;100751.34;4994414;28;100854;-34
2022/05/24 13:00:08;;;;;;;1.30;0.47;;;;;;;19.26;56.20;100748.47;5012634;28;96588;-34
2022/05/24 13:02:38;;;;;;;1.45;0.60;;;;;;;19.10;55.04;100746.38;5012470;28;96853;-34
2022/05/24 13:05:13;;;;;;;4.45;0.57;;;;;;;19.10;55.35;100754.63;5012005;28;99033;-34
2022/05/24 13:07:50;;;;;;;2.15;0.68;;;;;;;19.12;54.98;100748.97;5012864;28;97845;-34
2022/05/24 13:10:19;;;;;;;0.50;0.50;;;;;;;19.05;54.90;100756.09;5012408;28;96652;-34
2022/05/24 13:12:45;;;;;;;3.20;0.50;;;;;;;18.91;55.58;100751.09;5011982;28;97095;-34
2022/05/24 13:15:15;;;;;;;2.95;0.63;;;;;;;18.74;56.34;100753.59;5011626;28;99449;-34
2022/05/24 13:17:43;;;;;;;0.85;0.45;;;;;;;18.44;57.28;100757.41;4994151;28;100796;-34
2022/05/24 13:20:28;;;;;;;0.85;0.40;;;;;;;18.22;56.67;100764.09;4994290;28;96604;-34
2022/05/24 13:23:02;;;;;;;1.77;0.43;;;;;;;18.18;57.40;100757.19;4994162;28;96728;-34
2022/05/24 13:25:45;;;;;;;3.70;0.40;;;;;;;18.12;58.30;100755.91;4993754;28;99998;-34
2022/05/24 13:28:11;;;;;;;2.25;0.70;;;;;;;18.12;58.05;100764.13;5011857;28;99197;-34
2022/05/24 13:33:39;;;;;;;2.00;0.57;;;;;;;18.37;56.53;100767.25;5011408;28;96570;-34
2022/05/24 13:36:10;;;;;;;1.55;0.88;;;;;;;18.28;56.88;100782.69;5010593;28;101268;-34
2022/05/24 13:38:36;;;;;;;3.42;0.60;;;;;;;18.06;56.96;100772.91;5011532;28;105187;-34
2022/05/24 13:41:01;;;;;;;0.82;0.43;;;;;;;18.13;58.14;100784.16;5011523;28;96508;-34
2022/05/24 13:43:36;;;;;;;0.93;0.57;;;;;;;18.33;57.27;100783.16;5011733;28;101970;-34
2022/05/24 13:46:16;;;;;;;0.45;0.35;;;;;;;18.34;57.10;100794.97;5011961;28;97956;-34
2022/05/24 13:48:59;;;;;;;0.55;0.40;;;;;;;18.25;54.89;100774.78;5010306;28;100966;-34
2022/05/24 13:51:28;;;;;;;4.15;0.52;;;;;;;18.28;56.67;100790.91;4993758;28;96705;-34
2022/05/24 13:53:55;;;;;;;1.30;0.77;;;;;;;18.17;56.05;100778.25;5011726;28;96839;-34
2022/05/24 13:56:28;;;;;;;1.45;0.63;;;;;;;18.18;55.57;100799.16;5014015;28;98978;-34
2022/05/24 13:59:17;;;;;;;3.88;0.82;;;;;;;18.21;56.68;100801.63;5014925;28;115031;-34
2022/05/24 14:01:43;;;;;;;3.47;0.88;;;;;;;18.21;57.70;100798.00;4997303;28;96784;-34
2022/05/24 14:04:20;;;;;;;0.60;0.32;;;;;;;18.19;56.87;100789.09;5014736;28;96811;-33
2022/05/24 14:06:57;;;;;;;0.77;0.47;;;;;;;18.52;56.71;100806.94;4996581;28;100869;-34
2022/05/24 14:09:24;;;;;;;0.60;0.30;;;;;;;18.65;56.75;100810.22;4996145;28;101366;-34
2022/05/24 14:11:51;;;;;;;0.70;0.43;;;;;;;18.85;56.55;100804.69;4996705;28;96794;-34
2022/05/24 14:14:18;;;;;;;0.75;0.40;;;;;;;18.83;55.33;100801.25;5014573;28;111024;-34
2022/05/24 14:16:43;;;;;;;3.90;0.50;;;;;;;18.82;55.26;100802.28;5013525;28;100700;-34
2022/05/24 14:19:09;;;;;;;0.95;0.60;;;;;;;18.93;55.58;100817.72;5030572;28;97911;-34
2022/05/24 14:21:40;;;;;;;0.40;0.32;;;;;;;18.93;53.44;100806.72;5014904;28;96634;-34
2022/05/24 14:24:12;;;;;;;1.90;0.40;;;;;;;19.01;55.12;100821.41;5013960;28;96598;-34
2022/05/24 14:26:43;;;;;;;1.85;0.30;;;;;;;19.03;52.18;100830.38;4996735;28;100978;-34
2022/05/24 14:29:08;;;;;;;2.05;0.17;;;;;;;19.05;54.47;100828.34;4996562;28;104103;-34
2022/05/24 14:31:34;;;;;;;3.50;0.35;;;;;;;19.17;55.00;100825.41;5014303;28;96623;-34
2022/05/24 14:34:00;;;;;;;0.38;0.20;;;;;;;19.20;54.01;100834.19;5014905;28;96824;-34
2022/05/24 14:36:26;;;;;;;0.45;0.30;;;;;;;19.30;55.14;100842.41;4996490;28;100887;-34
2022/05/24 14:38:51;;;;;;;0.90;0.40;;;;;;;19.12;53.62;100833.25;5013521;28;125748;-34
2022/05/24 14:41:17;;;;;;;0.28;0.28;;;;;;;18.90;54.73;100838.06;5014503;28;96660;-34
2022/05/24 14:43:49;;;;;;;0.73;0.40;;;;;;;18.72;53.72;100846.16;5014754;28;96805;-34
2022/05/24 14:46:16;;;;;;;1.38;0.38;;;;;;;18.58;55.41;100844.75;4996418;28;101169;-34
2022/05/24 14:48:43;;;;;;;2.53;0.60;;;;;;;18.47;55.42;100842.16;4996749;28;101044;-34
2022/05/24 14:51:14;;;;;;;0.98;0.52;;;;;;;18.35;54.81;100846.06;5012990;28;96602;-34
2022/05/24 14:53:41;;;;;;;2.25;0.73;;;;;;;18.24;54.81;100841.59;4996508;28;96765;-34
2022/05/24 14:56:08;;;;;;;3.55;0.47;;;;;;;18.12;54.77;100843.63;5013761;28;99192;-34
2022/05/24 14:58:34;;;;;;;2.78;0.40;;;;;;;18.09;55.88;100846.66;5029399;28;98884;-34
2022/05/24 15:01:00;;;;;;;0.75;0.40;;;;;;;18.11;56.56;100855.59;5014489;28;96540;-34
2022/05/24 15:03:25;;;;;;;0.63;0.43;;;;;;;18.02;55.39;100857.31;4995814;28;96801;-34
2022/05/24 15:05:51;;;;;;;0.43;0.32;;;;;;;18.03;55.08;100855.44;5014099;28;98105;-34
2022/05/24 15:16:30;;;;;;;1.25;0.47;;;;;;;18.06;55.68;100860.63;5013999;28;98125;-34
2022/05/24 15:18:56;;;;;;;2.70;0.40;;;;;;;18.01;55.77;100868.41;5013817;28;99239;-34
2022/05/24 15:21:25;;;;;;;1.30;0.45;;;;;;;17.96;55.95;100868.84;5013649;28;96462;-34
2022/05/24 15:23:54;;;;;;;1.10;0.50;;;;;;;17.85;55.49;100863.47;4995674;28;99120;-34
2022/05/24 15:26:25;;;;;;;0.73;0.50;;;;;;;17.93;55.96;100881.97;4995651;28;101036;-34
2022/05/24 15:28:57;;;;;;;3.35;0.50;;;;;;;17.88;56.59;100884.28;4995591;28;100716;-34
2022/05/24 15:31:24;;;;;;;6.03;1.20;;;;;;;17.82;56.45;100900.25;4995919;28;96628;-34
2022/05/24 15:33:49;;;;;;;0.77;0.45;;;;;;;17.71;56.98;100886.66;4995793;28;96870;-34
2022/05/24 15:36:15;;;;;;;1.08;0.57;;;;;;;17.63;56.72;100900.16;5013819;28;97688;-34
2022/05/24 15:38:41;;;;;;;1.10;0.63;;;;;;;17.57;56.58;100892.53;4995984;28;101021;-34
2022/05/24 15:41:08;;;;;;;1.98;0.45;;;;;;;17.53;57.12;100905.63;5013801;28;96592;-34
2022/05/24 15:43:39;;;;;;;0.50;0.40;;;;;;;17.46;56.27;100906.31;4995829;28;96795;-34
2022/05/24 15:46:05;;;;;;;0.70;0.52;;;;;;;17.40;57.15;100900.38;5013078;28;99256;-34
2022/05/24 15:48:31;;;;;;;1.35;0.40;;;;;;;17.43;57.20;100910.19;5013338;28;99185;-34
2022/05/24 15:50:56;;;;;;;1.17;0.60;;;;;;;17.41;57.07;100909.47;4978951;28;96558;-34
2022/05/24 15:53:22;;;;;;;1.00;0.52;;;;;;;17.37;56.67;100908.00;5013178;28;97717;-34
2022/05/24 15:55:47;;;;;;;0.82;0.50;;;;;;;17.36;56.77;100919.97;5013459;28;100159;-34
2022/05/24 15:58:13;;;;;;;0.63;0.38;;;;;;;17.37;56.46;100924.41;5012726;28;122940;-34
2022/05/24 16:00:39;;;;;;;0.40;0.28;;;;;;;17.33;56.54;100909.28;5013613;28;96606;-34
2022/05/24 16:03:04;;;;;;;1.92;0.32;;;;;;;17.35;57.02;100912.72;5021973;28;96889;-34
2022/05/24 16:11:00;;;;;;;0.85;0.40;;;;;;;17.15;56.37;100920.00;5032854;28;96867;-34
2022/05/24 16:13:26;;;;;;;0.55;0.22;;;;;;;17.10;56.97;100934.06;5015023;28;96828;-34
2022/05/24 16:15:54;;;;;;;0.70;0.43;;;;;;;17.04;57.20;100926.44;5033160;28;98796;-34
2022/05/24 16:18:20;;;;;;;0.68;0.45;;;;;;;16.98;56.82;100921.47;5032678;28;99159;-34
2022/05/24 16:20:48;;;;;;;3.22;0.80;;;;;;;17.00;57.64;100930.41;5014841;28;96769;-34
2022/05/24 16:23:14;;;;;;;3.13;0.80;;;;;;;17.05;56.53;100932.75;5033242;28;96727;-34
2022/05/24 16:25:40;;;;;;;2.95;0.40;;;;;;;17.16;56.75;100933.56;5031264;28;101503;-34
2022/05/24 16:28:08;;;;;;;0.20;0.20;;;;;;;17.25;56.12;100939.22;5031860;28;100762;-34
2022/05/24 16:30:35;;;;;;;1.35;0.80;;;;;;;17.25;56.74;100926.38;5032916;28;96504;-34
2022/05/24 16:33:01;;;;;;;0.63;0.35;;;;;;;17.25;55.59;100933.72;5014892;28;96826;-34
2022/05/24 16:35:26;;;;;;;0.22;0.20;;;;;;;17.22;56.01;100944.97;5032243;28;97914;-34
2022/05/24 16:37:51;;;;;;;0.73;0.32;;;;;;;17.17;55.23;100928.94;5033339;28;97167;-34
2022/05/24 16:40:17;;;;;;;3.72;0.43;;;;;;;17.16;55.23;100949.97;5032881;28;96501;-34
2022/05/24 16:42:43;;;;;;;0.30;0.20;;;;;;;17.13;56.11;100952.97;5032881;28;97833;-34
2022/05/24 16:45:11;;;;;;;0.40;0.40;;;;;;;17.22;56.12;100945.81;5032804;28;97445;-34
2022/05/24 16:47:37;;;;;;;1.08;0.25;;;;;;;17.23;56.14;100949.41;5031186;28;101329;-34
2022/05/24 16:50:11;;;;;;;1.10;0.50;;;;;;;17.21;55.98;100955.06;5032150;28;115177;-34
2022/05/24 16:52:37;;;;;;;1.55;0.57;;;;;;;17.21;56.91;100960.53;5048579;27;96830;-34
2022/05/24 17:00:31;;;;;;;2.10;0.40;;;;;;;17.16;57.02;100981.94;5032318;28;96553;-34
2022/05/24 17:02:59;;;;;;;0.80;0.40;;;;;;;17.12;56.31;100975.00;5023406;28;96846;-34
2022/05/24 17:05:31;;;;;;;1.40;0.60;;;;;;;17.03;57.10;100975.81;4994190;28;100802;-34
2022/05/24 17:07:57;;;;;;;0.57;0.35;;;;;;;16.99;56.99;100969.72;4994341;28;100788;-34
2022/05/24 17:10:23;;;;;;;1.08;0.50;;;;;;;17.05;57.60;100985.63;5012927;28;96681;-34
2022/05/24 17:12:49;;;;;;;2.00;0.60;;;;;;;17.04;56.95;100983.00;5010470;28;97063;-34
2022/05/24 17:15:19;;;;;;;1.20;0.40;;;;;;;17.05;57.53;100985.63;5012425;28;97284;-34
2022/05/24 17:17:45;;;;;;;0.52;0.30;;;;;;;16.95;57.08;100991.03;4994545;28;101641;-34
2022/05/24 17:20:13;;;;;;;0.73;0.35;;;;;;;16.89;57.35;100993.41;4994223;28;96550;-34
2022/05/24 17:22:39;;;;;;;0.30;0.20;;;;;;;16.89;56.97;100998.88;4994197;28;96720;-34
2022/05/24 17:25:06;;;;;;;1.00;0.55;;;;;;;16.80;57.38;100997.78;5011724;28;97314;-34
2022/05/24 17:27:33;;;;;;;0.88;0.47;;;;;;;16.74;57.80;101001.91;4993727;28;101504;-34
2022/05/24 17:29:59;;;;;;;1.60;0.63;;;;;;;16.67;57.27;100997.94;4993237;28;96587;-34